Historyczne dane pomiarowe

Dodano dane terminowe – wersja testowa.

Dane z okresu 1951-2019

Wersja bazy: 1.34 [2019-03-16, lista zmian], aktualizacja planowana na 2019-04-15

Dane meteo z obszaru Polski uzyskane na podstawie danych udostępnionych przez Instytut Meteorologii i Gospodarki Wodnej – Państwowy Instytut Badawczy.

 

Wybierz Datę:    

       

TemperaturaWilgotnośćWiatrCiśnienieOpadyŚniegCzas trwania zjawisk
 Stacja t tx tn tng RH VA  wxwx mslp ppp RRR   cm mm wxwxwxwxwxwxwx
1964-02-15 -3.5 0.5 -5.6--- 5.3 2.7---- 0.0-- 1---------
1964-02-14 -5.0 -2.6-13.1--- 8.0 3.0---- 0.0-- 1---------
1964-02-13 -8.4 -4.7-10.7--- 5.3 2.0---- 0.0-- 1---------
1964-02-12 -2.9 1.4 -6.1--- 4.0 2.0---- 1.2------------
1964-02-11 0.8 4.3 -1.1--- 6.7 3.0---- 0.4------------
1964-02-10 1.8 4.1 -2.1--- 8.0 4.7---- 6.9------------
1964-02-09 2.4 5.3 1.2--- 6.3 3.0---- 0.2------------
1964-02-08 3.0 3.9 -2.6--- 8.0 3.7---- 0.8-- 1---------
1964-02-07 -3.0 -0.6 -6.2--- 5.3 3.7---- 0.8-- 1---------
1964-02-06 -3.1 -1.3 -4.6--- 2.7 6.0---- 0.6-- 2---------
1964-02-05 -0.1 3.4 -2.2--- 4.7 5.7---- 0.0-- 1---------
1964-02-04 3.8 5.4 2.9--- 8.0 3.7---- 10.0------------
1964-02-03 4.9 5.8 2.6--- 8.0 1.7---- 7.7------------
1964-02-02 5.1 6.9 4.1--- 6.3 6.7---- 0.0------------
1964-02-01 5.0 6.4 0.9--- 8.0 7.0---- 7.3------------
1964-01-31 2.2 3.1 0.4--- 8.0 2.0---- 1.5-- 1---------
1964-01-30 0.8 2.8 -1.5--- 8.0 3.7---- 3.3------------
1964-01-29 0.3 2.1 -3.4--- 5.3 2.0---- 0.0------------
1964-01-28 -2.1 -0.1 -7.3--- 5.3 4.0---- 0.0------------
1964-01-27 -1.9 4.4 -4.6--- 0.3 2.0---- 0.0------------
1964-01-26 2.8 3.5 0.9--- 8.0 6.0---- 4.2------------
1964-01-25 2.3 3.4 1.4--- 8.0 6.7---- 3.6------------
1964-01-24 1.1 1.7 -0.1--- 8.0 4.3---- 0.0------------
1964-01-23 0.7 2.0 0.4--- 8.0 2.0---- 0.0------------
1964-01-22 1.5 2.4 -0.6--- 8.0 3.7---- 0.0-- 2---------
1964-01-21 -2.3 -0.6 -6.6--- 8.0 2.0---- 0.2-- 2---------
1964-01-20 -6.4 -5.5-11.8--- 8.0 0.7---- 0.0-- 2---------
1964-01-19 -9.0 -2.6-14.7--- 2.0 0.3---- 0.0-- 2---------
1964-01-18 -6.2 -1.6-10.5--- 5.3 0.3---- 0.0-- 2---------
1964-01-17 -3.9 -2.5-15.0--- 7.3 1.0---- 0.0-- 2---------
1964-01-16 -6.8 -0.9-12.2--- 3.3 1.3---- 0.0-- 2---------
1964-01-15 -6.3 -3.1-13.2--- 2.3 1.7---- 0.5-- 1---------
1964-01-14 -7.3 -2.1-12.1--- 4.0 0.7---- 0.0-- 2---------
1964-01-13 -9.6 -4.1-13.4--- 0.0 0.0---- 0.0-- 2---------
1964-01-12-10.7 -3.6-15.6--- 0.0 0.3---- 0.0-- 2---------
1964-01-11 -9.6 -6.6-11.3--- 0.3 1.3---- 0.0-- 2---------
1964-01-10 -7.1 -2.5 -8.8--- 4.3 2.3---- 0.0-- 2---------
1964-01-09 -1.6 0.5 -2.5--- 8.0 3.0---- 1.5------------
1964-01-08 0.7 1.2 -0.1--- 8.0 1.3---- 0.6-- 2---------
1964-01-07 0.5 1.0 -4.4--- 8.0 2.0---- 1.5------------
1964-01-06 -3.1 -1.7 -6.0--- 5.3 0.7---- 0.0------------
1964-01-05 -2.6 1.5 -6.1--- 0.7 1.0---- 0.0------------
1964-01-04 -1.5 1.9 -4.2--- 1.3 2.0---- 0.0------------
1964-01-03 -0.8 1.9 -2.1--- 7.7 1.0---- 0.0------------
1964-01-02 2.3 3.5 1.4--- 8.0 0.7---- 0.0------------
1964-01-01 1.6 2.6 -4.1--- 8.0 2.0---- 0.6------------
1963-12-31 -0.9 2.4 -2.2--- 2.7 2.3---- 0.0------------
1963-12-30 1.9 2.9 -0.1--- 8.0 3.0---- 0.1------------
1963-12-29 2.1 4.9 0.6--- 4.7 2.3---- 0.0------------
1963-12-28 0.8 2.4 -0.1--- 8.0 2.0---- 0.0------------
1963-12-27 2.5 2.9 1.9--- 8.0 2.7---- 0.0-- 7---------
1963-12-26 2.0 2.4 -3.9--- 8.0 2.3---- 2.2-- 11---------
1963-12-25 -5.0 -2.1-14.7--- 3.3 1.0---- 0.0-- 13---------
1963-12-24-10.1 -5.6-17.2--- 1.3 1.7---- 0.0-- 13---------
1963-12-23-10.5 -8.6-15.7--- 8.0 1.0---- 0.0-- 13---------
1963-12-22 -9.3 -4.3-19.2--- 5.3 0.7---- 0.0-- 13---------
1963-12-21 -5.4 -3.9 -8.2--- 7.3 1.0---- 0.0-- 13---------
1963-12-20 -5.3 -3.8-11.2--- 6.7 2.0---- 0.0-- 13---------
1963-12-19 -5.1 -4.9 -6.0--- 8.0 3.7---- 1.2-- 13---------
1963-12-18 -6.2 -5.4-12.1--- 8.0 2.0---- 0.2-- 13---------
463.1 ms

 

Źródłem pochodzenia danych jest Instytut Meteorologii i Gospodarki Wodnej – Państwowy Instytut Badawczy. Dane Instytutu Meteorologii i Gospodarki Wodnej – Państwowego Instytutu Badawczego zostały przetworzone.

Dane źródłowe można odnaleźć na stronie https://dane.imgw.pl